Time;durP1;ratioP1;P1;durP2;ratioP2;P2;SDS_P1;SDS_P2;PMS_P1;PMS_P2;Temp;Humidity;BMP_temperature;BMP_pressure;BME280_temperature;BME280_humidity;BME280_pressure;Samples;Min_cycle;Max_cycle;Signal;HPM_P1;HPM_P2
2023/04/21 00:00:08;;;;;;;31.40;20.67;;;8.50;99.90;;;;;;5037130;28;20091;-72
2023/04/21 00:02:38;;;;;;;31.27;20.98;;;8.50;99.90;;;;;;5029840;28;20048;-73
2023/04/21 00:05:06;;;;;;;31.88;21.30;;;8.50;99.90;;;;;;5043151;28;20043;-73
2023/04/21 00:07:32;;;;;;;31.30;20.98;;;8.50;99.90;;;;;;5033988;28;20124;-73
2023/04/21 00:09:58;;;;;;;33.05;20.60;;;8.50;99.90;;;;;;5023194;28;20036;-73
2023/04/21 00:12:24;;;;;;;29.50;20.63;;;8.50;99.90;;;;;;5044725;28;20566;-73
2023/04/21 00:14:50;;;;;;;26.53;20.47;;;8.60;99.90;;;;;;5045915;28;20640;-73
2023/04/21 00:17:15;;;;;;;28.73;20.60;;;8.60;99.90;;;;;;5044623;28;20620;-72
2023/04/21 00:19:41;;;;;;;38.53;21.33;;;8.60;99.90;;;;;;5029054;28;20057;-72
2023/04/21 00:22:11;;;;;;;31.97;21.07;;;8.60;99.90;;;;;;5042716;28;20076;-73
2023/04/21 00:24:36;;;;;;;32.17;20.23;;;8.50;99.90;;;;;;5030818;28;20048;-73
2023/04/21 00:27:02;;;;;;;31.30;21.30;;;8.60;99.90;;;;;;5044087;28;20063;-73
2023/04/21 00:29:28;;;;;;;34.27;21.77;;;8.60;99.90;;;;;;5045261;28;20513;-73
2023/04/21 00:31:54;;;;;;;28.03;20.47;;;8.60;99.90;;;;;;5025764;28;20049;-73
2023/04/21 00:34:19;;;;;;;34.87;21.57;;;8.60;99.90;;;;;;5041144;28;20037;-73
2023/04/21 00:36:45;;;;;;;32.37;20.97;;;8.60;99.90;;;;;;5046650;28;20040;-73
2023/04/21 00:39:11;;;;;;;31.67;21.97;;;8.60;99.90;;;;;;5039867;28;20041;-72
2023/04/21 00:41:38;;;;;;;33.33;20.80;;;8.60;99.90;;;;;;5048522;28;20075;-72
2023/04/21 00:44:06;;;;;;;33.03;20.77;;;8.50;99.90;;;;;;5031897;28;20036;-73
2023/04/21 00:46:33;;;;;;;31.35;20.77;;;8.50;99.90;;;;;;5044241;28;20095;-73
2023/04/21 00:49:02;;;;;;;29.80;20.30;;;8.50;99.90;;;;;;5038066;28;20519;-72
2023/04/21 00:51:28;;;;;;;33.75;19.73;;;8.50;99.90;;;;;;5034930;28;20044;-72
2023/04/21 00:53:55;;;;;;;32.63;20.25;;;8.40;99.90;;;;;;5043192;28;20226;-72
2023/04/21 00:56:21;;;;;;;33.60;20.83;;;8.40;99.90;;;;;;5018793;28;20037;-72
2023/04/21 00:58:48;;;;;;;33.58;20.15;;;8.40;99.90;;;;;;5026617;28;20076;-73
2023/04/21 01:01:14;;;;;;;26.38;19.25;;;8.40;99.90;;;;;;5026802;28;20036;-73
2023/04/21 01:03:40;;;;;;;30.07;19.20;;;8.30;99.90;;;;;;5026411;28;20044;-73
2023/04/21 01:06:07;;;;;;;27.63;18.63;;;8.30;99.90;;;;;;5028216;28;20405;-73
2023/04/21 01:08:34;;;;;;;29.67;18.45;;;8.20;99.90;;;;;;5045212;28;20112;-73
2023/04/21 01:11:00;;;;;;;26.75;17.75;;;8.10;99.90;;;;;;5025827;28;20040;-72
2023/04/21 01:13:25;;;;;;;30.33;18.70;;;8.10;99.90;;;;;;5029977;28;20510;-72
2023/04/21 01:15:51;;;;;;;27.87;18.10;;;8.10;99.90;;;;;;5032269;28;20049;-72
2023/04/21 01:18:18;;;;;;;29.23;17.80;;;8.00;99.90;;;;;;5018928;28;20073;-72
2023/04/21 01:20:43;;;;;;;27.00;17.40;;;8.00;99.90;;;;;;5030761;28;20037;-73
2023/04/21 01:23:10;;;;;;;30.53;18.83;;;8.00;99.90;;;;;;5043874;28;20037;-72
2023/04/21 01:25:35;;;;;;;28.80;17.80;;;7.90;99.90;;;;;;5026529;28;20095;-72
2023/04/21 01:28:02;;;;;;;29.23;18.17;;;7.90;99.90;;;;;;5046505;28;20032;-73
2023/04/21 01:30:27;;;;;;;27.35;18.08;;;7.90;99.90;;;;;;5030110;28;20091;-73
2023/04/21 01:32:53;;;;;;;28.30;17.57;;;7.90;99.90;;;;;;5042994;28;20470;-72
2023/04/21 01:35:19;;;;;;;28.80;17.87;;;7.80;99.90;;;;;;5047411;28;20036;-72
2023/04/21 01:37:45;;;;;;;26.63;17.40;;;7.80;99.90;;;;;;5043598;28;20113;-73
2023/04/21 01:40:11;;;;;;;25.27;17.40;;;7.80;99.90;;;;;;5030511;28;20047;-73
2023/04/21 01:42:39;;;;;;;26.40;17.60;;;7.70;99.90;;;;;;5024731;28;20128;-72
2023/04/21 01:45:05;;;;;;;26.92;18.48;;;7.80;99.90;;;;;;5045200;28;20465;-72
2023/04/21 01:47:31;;;;;;;29.73;17.48;;;7.80;99.90;;;;;;5024319;28;20707;-72
2023/04/21 01:49:57;;;;;;;24.65;17.40;;;7.70;99.90;;;;;;5042627;28;20418;-72
2023/04/21 01:52:23;;;;;;;27.50;18.23;;;7.70;99.90;;;;;;5048900;28;20052;-72
2023/04/21 01:54:49;;;;;;;27.13;17.37;;;7.70;99.90;;;;;;5025423;28;20048;-73
2023/04/21 01:57:15;;;;;;;27.08;17.17;;;7.70;99.90;;;;;;5035714;28;20034;-73
2023/04/21 01:59:41;;;;;;;27.98;18.60;;;7.70;99.90;;;;;;5045923;28;20060;-73
2023/04/21 02:02:07;;;;;;;27.60;18.30;;;7.70;99.90;;;;;;5040703;28;20041;-73
2023/04/21 02:04:33;;;;;;;28.67;17.93;;;7.70;99.90;;;;;;5041314;28;20028;-74
2023/04/21 02:06:59;;;;;;;29.40;18.00;;;7.70;99.90;;;;;;5032232;28;20033;-73
2023/04/21 02:09:24;;;;;;;26.73;18.43;;;7.60;99.90;;;;;;5027727;28;20041;-73
2023/04/21 02:11:50;;;;;;;25.83;17.80;;;7.60;99.90;;;;;;5024958;28;20033;-73
2023/04/21 02:14:16;;;;;;;30.37;19.17;;;7.60;99.90;;;;;;5031840;28;20045;-73
2023/04/21 02:16:42;;;;;;;26.67;17.43;;;7.50;99.90;;;;;;5047019;28;20290;-72
2023/04/21 02:19:08;;;;;;;26.67;18.07;;;7.50;99.90;;;;;;5031965;28;20069;-72
2023/04/21 02:21:33;;;;;;;29.17;17.93;;;7.60;99.90;;;;;;5044554;28;20045;-72
2023/04/21 02:23:59;;;;;;;28.13;18.50;;;7.50;99.90;;;;;;5020514;28;20060;-72
2023/04/21 02:26:25;;;;;;;29.77;18.93;;;7.50;99.90;;;;;;5041632;28;20417;-72
2023/04/21 02:28:50;;;;;;;29.33;18.67;;;7.50;99.90;;;;;;5043390;28;20114;-72
2023/04/21 02:31:17;;;;;;;28.57;18.47;;;7.50;99.90;;;;;;5037116;28;20053;-72
2023/04/21 02:33:43;;;;;;;25.85;18.52;;;7.50;99.90;;;;;;5044618;28;20095;-72
2023/04/21 02:36:09;;;;;;;29.85;19.05;;;7.50;99.90;;;;;;5020219;28;20041;-72
2023/04/21 02:38:35;;;;;;;27.53;17.93;;;7.50;99.90;;;;;;5045842;28;20040;-72
2023/04/21 02:41:01;;;;;;;30.20;18.67;;;7.50;99.90;;;;;;5030715;28;20045;-73
2023/04/21 02:43:27;;;;;;;29.60;17.83;;;7.50;99.90;;;;;;5039338;28;20037;-73
2023/04/21 02:45:52;;;;;;;25.67;17.37;;;7.50;99.90;;;;;;5044807;28;20135;-73
2023/04/21 02:48:24;;;;;;;25.87;18.87;;;7.40;99.90;;;;;;5018858;28;20401;-73
2023/04/21 02:50:52;;;;;;;27.08;17.95;;;7.50;99.90;;;;;;5057997;28;20068;-73
2023/04/21 02:53:21;;;;;;;25.48;17.77;;;7.40;99.90;;;;;;5043534;28;20427;-73
2023/04/21 02:55:47;;;;;;;28.20;17.50;;;7.30;99.90;;;;;;5025284;28;20691;-72
2023/04/21 02:58:13;;;;;;;28.43;17.80;;;7.30;99.90;;;;;;5044677;28;20036;-72
2023/04/21 03:00:40;;;;;;;30.55;17.88;;;7.30;99.90;;;;;;5025990;28;20284;-72
2023/04/21 03:03:05;;;;;;;27.65;17.00;;;7.30;99.90;;;;;;5030507;28;20087;-73
2023/04/21 03:05:31;;;;;;;29.43;18.27;;;7.30;99.90;;;;;;5023307;28;20513;-72
2023/04/21 03:07:57;;;;;;;24.63;17.00;;;7.40;99.90;;;;;;5046893;28;20037;-72
2023/04/21 03:10:22;;;;;;;25.83;17.30;;;7.40;99.90;;;;;;5038379;28;20516;-72
2023/04/21 03:12:48;;;;;;;30.23;18.27;;;7.40;99.90;;;;;;5029272;28;20048;-72
2023/04/21 03:15:15;;;;;;;28.27;17.87;;;7.40;99.90;;;;;;5040301;28;20056;-73
2023/04/21 03:17:41;;;;;;;28.02;17.40;;;7.40;99.90;;;;;;5041046;28;20051;-73
2023/04/21 03:20:10;;;;;;;23.33;16.65;;;7.40;99.90;;;;;;5028561;28;20155;-72
2023/04/21 03:22:36;;;;;;;28.75;16.98;;;7.40;99.90;;;;;;5036134;28;20068;-72
2023/04/21 03:25:03;;;;;;;29.25;17.25;;;7.40;99.90;;;;;;5045833;28;21566;-72
2023/04/21 03:27:29;;;;;;;28.63;17.48;;;7.40;99.90;;;;;;5029949;28;20167;-72
2023/04/21 03:29:55;;;;;;;27.37;17.87;;;7.40;99.90;;;;;;5022483;28;20551;-72
2023/04/21 03:32:21;;;;;;;26.03;15.93;;;7.40;99.90;;;;;;5019178;28;20299;-73
2023/04/21 03:34:46;;;;;;;28.77;17.73;;;7.30;99.90;;;;;;5027641;28;20489;-72
2023/04/21 03:37:12;;;;;;;25.20;17.23;;;7.30;99.90;;;;;;5040135;28;20041;-72
2023/04/21 03:39:38;;;;;;;29.57;17.30;;;7.30;99.90;;;;;;5043279;28;20045;-73
2023/04/21 03:42:03;;;;;;;26.87;17.87;;;7.30;99.90;;;;;;5018519;28;20040;-73
2023/04/21 03:44:29;;;;;;;27.13;18.40;;;7.30;99.90;;;;;;5018407;28;20067;-73
2023/04/21 03:46:56;;;;;;;29.15;19.00;;;7.30;99.90;;;;;;5023661;28;20056;-72
2023/04/21 03:49:22;;;;;;;27.98;17.30;;;7.30;99.90;;;;;;5021433;28;20576;-72
2023/04/21 03:51:48;;;;;;;26.45;17.92;;;7.30;99.90;;;;;;5043583;28;20521;-72
2023/04/21 03:54:14;;;;;;;27.93;17.97;;;7.30;99.90;;;;;;5046706;28;20041;-72
2023/04/21 03:56:39;;;;;;;33.07;16.90;;;7.30;99.90;;;;;;5027124;28;20557;-72
2023/04/21 03:59:05;;;;;;;24.80;15.93;;;7.40;99.90;;;;;;5051232;28;20052;-72
2023/04/21 04:01:33;;;;;;;27.83;17.87;;;7.40;99.90;;;;;;5042504;28;20040;-72
2023/04/21 04:03:58;;;;;;;25.73;17.70;;;7.40;99.90;;;;;;5031592;28;20393;-73
2023/04/21 04:06:25;;;;;;;28.83;17.40;;;7.40;99.90;;;;;;5050149;28;20037;-73
2023/04/21 04:08:51;;;;;;;27.13;17.20;;;7.40;99.90;;;;;;5037047;28;20037;-73
2023/04/21 04:11:16;;;;;;;25.50;16.17;;;7.40;99.90;;;;;;5047961;28;20165;-73
2023/04/21 04:13:42;;;;;;;27.00;16.27;;;7.40;99.90;;;;;;5043506;28;20505;-73
2023/04/21 04:16:08;;;;;;;28.13;16.73;;;7.50;99.90;;;;;;5049143;28;20056;-73
2023/04/21 04:18:33;;;;;;;23.40;15.30;;;7.50;99.90;;;;;;5032854;28;20045;-73
2023/04/21 04:21:07;;;;;;;24.83;16.13;;;7.70;99.90;;;;;;5050394;28;20045;-73
2023/04/21 04:23:36;;;;;;;23.30;16.05;;;7.70;99.90;;;;;;5027789;28;20509;-73
2023/04/21 04:26:04;;;;;;;25.33;15.90;;;7.80;99.90;;;;;;5033189;28;20123;-73
2023/04/21 04:28:30;;;;;;;24.17;15.40;;;7.80;99.90;;;;;;5047607;28;20552;-73
2023/04/21 04:30:56;;;;;;;24.52;15.00;;;7.90;99.90;;;;;;5027286;28;21481;-72
2023/04/21 04:33:22;;;;;;;22.13;14.80;;;8.00;99.90;;;;;;5029150;28;20126;-73
2023/04/21 04:35:47;;;;;;;24.57;14.00;;;8.00;99.90;;;;;;5045181;28;20056;-73
2023/04/21 04:38:14;;;;;;;20.77;14.40;;;8.00;99.90;;;;;;5049942;28;20041;-72
2023/04/21 04:40:41;;;;;;;22.75;14.25;;;8.00;99.90;;;;;;5028799;28;20068;-72
2023/04/21 04:43:07;;;;;;;21.15;13.98;;;8.10;99.90;;;;;;5028887;28;20127;-73
2023/04/21 04:45:33;;;;;;;24.50;14.77;;;8.10;99.90;;;;;;5046252;28;20056;-72
2023/04/21 04:47:59;;;;;;;24.50;14.93;;;8.10;99.90;;;;;;5049723;28;20036;-72
2023/04/21 04:50:24;;;;;;;23.40;14.87;;;8.10;99.90;;;;;;5027543;28;20037;-72
2023/04/21 04:52:50;;;;;;;24.87;15.10;;;8.10;99.90;;;;;;5027647;28;20075;-73
2023/04/21 04:55:16;;;;;;;21.87;14.23;;;8.00;99.90;;;;;;5047071;28;20045;-72
2023/04/21 04:57:42;;;;;;;25.50;14.73;;;8.00;99.90;;;;;;5048833;28;20614;-72
2023/04/21 05:00:10;;;;;;;21.43;14.60;;;8.00;99.90;;;;;;5032300;28;20080;-72
2023/04/21 05:02:37;;;;;;;26.05;16.00;;;8.10;99.90;;;;;;5021995;28;20082;-73
2023/04/21 05:05:05;;;;;;;26.48;15.45;;;8.10;99.90;;;;;;5041257;28;20527;-73
2023/04/21 05:07:30;;;;;;;23.20;14.80;;;8.20;99.90;;;;;;5039340;28;20139;-73
2023/04/21 05:09:56;;;;;;;23.47;13.77;;;8.20;99.90;;;;;;5029076;28;20029;-73
2023/04/21 05:12:22;;;;;;;23.87;13.60;;;8.20;99.90;;;;;;5020324;28;20138;-73
2023/04/21 05:14:47;;;;;;;22.00;14.40;;;8.20;99.90;;;;;;5023118;28;20051;-73
2023/04/21 05:17:13;;;;;;;19.67;13.10;;;8.30;99.90;;;;;;5040856;28;20416;-73
2023/04/21 05:19:39;;;;;;;18.37;13.40;;;8.40;99.90;;;;;;5020211;28;20136;-73
2023/04/21 05:22:05;;;;;;;25.43;14.27;;;8.40;99.90;;;;;;5042536;28;20122;-73
2023/04/21 05:24:32;;;;;;;22.13;13.50;;;8.50;99.90;;;;;;5036437;28;20038;-73
2023/04/21 05:26:58;;;;;;;23.92;13.15;;;8.60;99.90;;;;;;5038763;28;20146;-72
2023/04/21 05:29:23;;;;;;;24.07;13.20;;;8.70;99.90;;;;;;5031632;28;20099;-73
2023/04/21 05:31:49;;;;;;;21.17;13.50;;;8.70;99.90;;;;;;5026900;28;20044;-73
2023/04/21 05:34:15;;;;;;;19.50;12.37;;;8.70;99.90;;;;;;5018596;28;20043;-73
2023/04/21 05:36:41;;;;;;;19.47;12.40;;;8.70;99.90;;;;;;5028034;28;20041;-73
2023/04/21 05:39:07;;;;;;;20.02;13.70;;;8.70;99.90;;;;;;5028139;28;20041;-73
2023/04/21 05:41:33;;;;;;;20.83;13.15;;;8.70;99.90;;;;;;5031765;28;20043;-73
2023/04/21 05:43:59;;;;;;;18.13;12.30;;;8.70;99.90;;;;;;5023233;28;20812;-73
2023/04/21 05:46:25;;;;;;;18.47;12.57;;;8.70;99.90;;;;;;5039921;28;20569;-73
2023/04/21 05:48:50;;;;;;;21.93;13.07;;;8.80;99.90;;;;;;5048165;28;20123;-72
2023/04/21 05:51:16;;;;;;;22.33;13.33;;;8.80;99.90;;;;;;5031722;28;20068;-72
2023/04/21 05:53:43;;;;;;;16.40;12.17;;;8.80;99.90;;;;;;5027237;28;20049;-73
2023/04/21 05:56:09;;;;;;;23.80;12.77;;;8.80;99.90;;;;;;5022993;28;20111;-73
2023/04/21 05:58:35;;;;;;;21.70;13.13;;;8.90;99.90;;;;;;5025228;28;20048;-73
2023/04/21 06:01:02;;;;;;;19.05;12.20;;;8.90;99.90;;;;;;5030566;28;20048;-73
2023/04/21 06:03:30;;;;;;;21.95;12.82;;;9.00;99.90;;;;;;5047073;28;20048;-73
2023/04/21 06:05:56;;;;;;;19.17;12.32;;;9.00;99.90;;;;;;5025932;28;20037;-73
2023/04/21 06:08:22;;;;;;;22.02;12.13;;;9.00;99.90;;;;;;5045362;28;20029;-73
2023/04/21 06:10:48;;;;;;;17.38;12.68;;;9.10;99.90;;;;;;5026974;28;20037;-73
2023/04/21 06:13:14;;;;;;;18.07;12.60;;;9.10;99.90;;;;;;5026327;28;20064;-73
2023/04/21 06:15:40;;;;;;;20.58;12.35;;;9.20;99.90;;;;;;5032069;28;20103;-73
2023/04/21 06:18:06;;;;;;;17.27;11.43;;;9.30;99.90;;;;;;5020025;28;20095;-73
2023/04/21 06:20:32;;;;;;;21.73;12.77;;;9.30;99.90;;;;;;5021586;28;20390;-73
2023/04/21 06:22:57;;;;;;;18.40;12.10;;;9.40;99.90;;;;;;5024223;28;20034;-73
2023/04/21 06:25:23;;;;;;;19.27;11.17;;;9.40;99.90;;;;;;5042341;28;20132;-73
2023/04/21 06:27:49;;;;;;;21.37;12.47;;;9.50;99.90;;;;;;5023449;28;20037;-73
2023/04/21 06:30:16;;;;;;;20.70;12.23;;;9.60;99.90;;;;;;5047513;28;20417;-73
2023/04/21 06:32:44;;;;;;;22.20;12.30;;;9.60;99.90;;;;;;5048052;28;20436;-73
2023/04/21 06:35:13;;;;;;;17.15;11.80;;;9.70;99.90;;;;;;5029112;28;20069;-73
2023/04/21 06:37:39;;;;;;;17.98;11.07;;;9.70;99.90;;;;;;5043146;28;20409;-73
2023/04/21 06:40:05;;;;;;;17.98;11.13;;;9.80;99.90;;;;;;5044813;28;20041;-73
2023/04/21 06:42:31;;;;;;;19.88;11.30;;;9.80;99.90;;;;;;5047172;28;20040;-73
2023/04/21 06:44:57;;;;;;;18.23;11.47;;;9.90;99.90;;;;;;5045642;28;20029;-73
2023/04/21 06:47:22;;;;;;;17.37;11.70;;;9.90;99.90;;;;;;5030394;28;20045;-73
2023/04/21 06:49:48;;;;;;;20.03;11.07;;;10.00;99.90;;;;;;5037901;28;20033;-73
2023/04/21 06:52:14;;;;;;;18.43;11.40;;;10.10;99.90;;;;;;5048995;28;20041;-74
2023/04/21 06:54:40;;;;;;;18.40;10.57;;;10.10;99.90;;;;;;5043924;28;20043;-74
2023/04/21 06:57:05;;;;;;;16.57;10.83;;;10.30;99.90;;;;;;5027133;28;20037;-75
2023/04/21 06:59:33;;;;;;;16.57;11.57;;;10.40;99.90;;;;;;5046152;28;20045;-74
2023/04/21 07:01:58;;;;;;;17.67;11.10;;;10.40;99.90;;;;;;5026732;28;20037;-74
2023/04/21 07:04:28;;;;;;;19.67;10.87;;;10.50;99.90;;;;;;5045583;28;20571;-75
2023/04/21 07:06:55;;;;;;;19.33;11.65;;;10.60;99.90;;;;;;5048757;28;20044;-74
2023/04/21 07:09:21;;;;;;;18.40;10.77;;;10.70;99.90;;;;;;5030464;28;20033;-74
2023/04/21 07:11:47;;;;;;;15.87;10.63;;;10.70;99.90;;;;;;5045968;28;20384;-75
2023/04/21 07:14:13;;;;;;;16.13;11.10;;;10.80;99.90;;;;;;5022368;28;20476;-75
2023/04/21 07:16:38;;;;;;;17.63;12.13;;;10.90;99.90;;;;;;5042007;28;20044;-75
2023/04/21 07:19:04;;;;;;;18.23;11.53;;;11.10;99.90;;;;;;5036992;28;20049;-74
2023/04/21 07:21:30;;;;;;;19.17;11.27;;;11.20;99.90;;;;;;5039717;28;20045;-75
2023/04/21 07:23:57;;;;;;;16.38;10.70;;;11.30;99.90;;;;;;5024638;28;20401;-76
2023/04/21 07:26:23;;;;;;;17.50;11.30;;;11.40;99.90;;;;;;5030087;28;20033;-76
2023/04/21 07:28:51;;;;;;;16.50;11.18;;;11.30;99.90;;;;;;5049090;28;20041;-74
2023/04/21 07:31:16;;;;;;;19.42;11.02;;;11.30;99.90;;;;;;5046181;28;20041;-75
2023/04/21 07:33:42;;;;;;;18.20;10.93;;;11.30;99.90;;;;;;5045992;28;20505;-75
2023/04/21 07:36:11;;;;;;;14.73;11.70;;;11.40;99.90;;;;;;5031864;28;20045;-76
2023/04/21 07:38:41;;;;;;;19.33;11.90;;;11.50;99.90;;;;;;5047421;28;20087;-75
2023/04/21 07:41:13;;;;;;;18.80;11.70;;;11.60;99.90;;;;;;5031553;28;20038;-75
2023/04/21 07:43:39;;;;;;;16.95;10.30;;;11.60;99.90;;;;;;5037511;28;20045;-75
2023/04/21 07:46:06;;;;;;;15.55;11.25;;;11.70;99.90;;;;;;5034662;28;20060;-75
2023/04/21 07:48:32;;;;;;;16.63;11.40;;;11.80;99.90;;;;;;5027462;28;20576;-76
2023/04/21 07:50:59;;;;;;;16.65;10.45;;;11.90;99.90;;;;;;5047387;28;20064;-75
2023/04/21 07:53:28;;;;;;;16.23;10.37;;;11.90;99.90;;;;;;5040328;28;20510;-75
2023/04/21 07:55:53;;;;;;;16.30;10.50;;;12.00;99.90;;;;;;5041012;28;20279;-75
2023/04/21 07:58:22;;;;;;;22.57;11.07;;;12.10;99.90;;;;;;5042906;28;20276;-74
2023/04/21 08:00:48;;;;;;;18.90;10.90;;;12.10;99.90;;;;;;5024836;28;20056;-75
2023/04/21 08:03:14;;;;;;;16.43;10.90;;;12.10;99.90;;;;;;5043028;28;20463;-75
2023/04/21 08:05:40;;;;;;;19.63;11.10;;;12.20;99.90;;;;;;5041527;28;20060;-75
2023/04/21 08:08:06;;;;;;;15.50;10.40;;;12.30;99.90;;;;;;5045479;28;20279;-75
2023/04/21 08:10:32;;;;;;;14.70;10.60;;;12.40;99.90;;;;;;5036635;28;20292;-75
2023/04/21 08:12:58;;;;;;;16.70;10.93;;;12.50;99.90;;;;;;5041459;28;20067;-75
2023/04/21 08:15:24;;;;;;;16.23;10.97;;;12.70;99.90;;;;;;5026398;28;20644;-75
2023/04/21 08:17:50;;;;;;;17.63;10.63;;;12.70;99.90;;;;;;5029524;28;20280;-76
2023/04/21 08:20:16;;;;;;;18.43;11.07;;;12.80;99.90;;;;;;5042390;28;20329;-75
2023/04/21 08:22:42;;;;;;;18.57;11.40;;;12.90;99.90;;;;;;5030867;28;20052;-76
2023/04/21 08:25:08;;;;;;;15.83;10.73;;;13.00;99.90;;;;;;5027725;28;20029;-75
2023/04/21 08:27:36;;;;;;;15.47;11.60;;;13.10;99.90;;;;;;5030724;28;20524;-74
2023/04/21 08:30:02;;;;;;;20.00;10.90;;;13.20;99.90;;;;;;5028024;28;20585;-75
2023/04/21 08:32:28;;;;;;;17.03;10.87;;;13.40;99.90;;;;;;5027868;28;20374;-75
2023/04/21 08:34:54;;;;;;;17.23;10.70;;;13.50;99.90;;;;;;5039766;28;20303;-74
2023/04/21 08:37:20;;;;;;;17.37;11.33;;;13.70;99.90;;;;;;5025465;28;20120;-75
2023/04/21 08:39:49;;;;;;;18.00;11.40;;;13.80;99.90;;;;;;5026853;28;20048;-75
2023/04/21 08:42:17;;;;;;;18.80;10.40;;;14.00;99.90;;;;;;5030217;28;20295;-75
2023/04/21 08:44:43;;;;;;;13.50;10.10;;;14.00;99.90;;;;;;5019166;28;20342;-76
2023/04/21 08:47:13;;;;;;;19.20;11.23;;;14.00;99.90;;;;;;5039474;28;20868;-75
2023/04/21 08:49:41;;;;;;;14.37;10.37;;;14.00;99.90;;;;;;5024122;28;20452;-76
2023/04/21 08:52:07;;;;;;;16.80;10.60;;;14.00;99.90;;;;;;5031905;28;20288;-75
2023/04/21 08:54:35;;;;;;;21.50;10.70;;;13.90;99.90;;;;;;5036245;28;20279;-75
2023/04/21 08:57:02;;;;;;;15.17;11.00;;;13.90;99.90;;;;;;5031380;28;20041;-75
2023/04/21 08:59:28;;;;;;;15.90;11.37;;;13.80;99.90;;;;;;5030874;28;20346;-74
2023/04/21 09:02:10;;;;;;;15.30;11.00;;;13.80;99.90;;;;;;5052698;28;20302;-75
2023/04/21 09:04:54;;;;;;;14.97;10.60;;;13.80;99.90;;;;;;5033078;28;20704;-75
2023/04/21 09:07:34;;;;;;;15.33;10.30;;;13.80;99.90;;;;;;5049957;28;20284;-75
2023/04/21 09:10:02;;;;;;;17.10;11.17;;;13.80;99.90;;;;;;5044765;28;20287;-74
2023/04/21 09:12:28;;;;;;;17.60;11.10;;;13.90;99.90;;;;;;5049664;28;20283;-75
2023/04/21 09:14:56;;;;;;;16.57;10.90;;;14.10;99.90;;;;;;5030905;28;20283;-75
2023/04/21 09:17:31;;;;;;;18.77;10.40;;;14.30;99.90;;;;;;5030317;28;20301;-75
2023/04/21 09:20:09;;;;;;;13.52;10.75;;;14.50;99.90;;;;;;5035104;28;20275;-75
2023/04/21 09:22:37;;;;;;;17.70;10.83;;;14.70;99.90;;;;;;5048170;28;20041;-75
2023/04/21 09:25:03;;;;;;;16.00;10.50;;;14.80;99.90;;;;;;5035732;28;20318;-75
2023/04/21 09:27:28;;;;;;;17.87;10.90;;;14.90;99.90;;;;;;5034225;28;20296;-75
2023/04/21 09:29:54;;;;;;;18.10;11.70;;;15.10;99.90;;;;;;5039045;28;20514;-75
2023/04/21 09:32:20;;;;;;;18.07;11.47;;;15.20;99.90;;;;;;5053580;28;20179;-76
2023/04/21 09:34:46;;;;;;;18.43;12.07;;;15.30;99.90;;;;;;5034094;28;20037;-76
2023/04/21 09:37:13;;;;;;;19.17;11.17;;;15.50;99.90;;;;;;5029154;28;20047;-76
2023/04/21 09:39:43;;;;;;;14.40;10.43;;;15.60;99.90;;;;;;5035960;28;20382;-76
2023/04/21 09:42:10;;;;;;;18.83;11.77;;;15.80;99.90;;;;;;5049220;28;20283;-75
2023/04/21 09:44:37;;;;;;;15.47;10.17;;;15.90;99.90;;;;;;5051705;28;20299;-75
2023/04/21 09:47:04;;;;;;;16.67;10.23;;;16.10;99.90;;;;;;5053932;28;20287;-75
2023/04/21 09:49:32;;;;;;;14.03;10.53;;;16.30;99.90;;;;;;5038750;28;20608;-75
2023/04/21 09:51:59;;;;;;;21.43;10.13;;;16.40;99.90;;;;;;5038516;28;20306;-75
2023/04/21 09:54:30;;;;;;;15.77;10.00;;;16.50;99.90;;;;;;5054371;28;20283;-74
2023/04/21 09:57:00;;;;;;;17.67;10.20;;;16.50;99.90;;;;;;5044801;28;20809;-74
2023/04/21 09:59:34;;;;;;;16.57;10.70;;;16.60;99.90;;;;;;5032420;28;20287;-75
2023/04/21 10:02:03;;;;;;;14.53;9.80;;;16.70;99.90;;;;;;5035250;28;20284;-74
2023/04/21 10:04:31;;;;;;;13.63;10.00;;;17.00;99.90;;;;;;5038810;28;20376;-75
2023/04/21 10:07:01;;;;;;;15.57;9.60;;;17.10;99.90;;;;;;5036181;28;20291;-74
2023/04/21 10:09:35;;;;;;;18.77;10.60;;;17.10;99.90;;;;;;5044989;28;20282;-74
2023/04/21 10:12:02;;;;;;;17.07;10.43;;;17.10;98.70;;;;;;5038946;28;20337;-75
2023/04/21 10:14:28;;;;;;;15.00;9.67;;;17.10;98.80;;;;;;5037828;28;20303;-75
2023/04/21 10:17:07;;;;;;;15.30;9.87;;;17.10;99.20;;;;;;5035965;28;20299;-74
2023/04/21 10:19:38;;;;;;;17.93;10.27;;;17.20;98.80;;;;;;5031905;28;20041;-75
2023/04/21 10:22:10;;;;;;;18.57;10.03;;;17.30;98.80;;;;;;5040484;28;20287;-74
2023/04/21 10:24:38;;;;;;;13.87;9.97;;;17.40;98.40;;;;;;5038106;28;20363;-74
2023/04/21 10:27:04;;;;;;;16.53;10.07;;;17.30;97.30;;;;;;5039126;28;20298;-74
2023/04/21 10:29:33;;;;;;;16.17;10.60;;;17.40;97.90;;;;;;5052858;28;20349;-74
2023/04/21 10:31:59;;;;;;;14.77;9.93;;;17.40;97.80;;;;;;5045716;28;20318;-74
2023/04/21 10:34:25;;;;;;;14.60;9.90;;;17.40;97.70;;;;;;5046452;28;20280;-75
2023/04/21 10:36:54;;;;;;;18.87;9.00;;;17.40;97.20;;;;;;5039909;28;20294;-75
2023/04/21 10:39:35;;;;;;;19.10;10.07;;;17.40;98.30;;;;;;5026942;28;20347;-74
2023/04/21 10:42:24;;;;;;;15.97;10.97;;;17.50;96.80;;;;;;5030054;28;20349;-74
2023/04/21 10:44:54;;;;;;;15.00;10.10;;;17.70;96.50;;;;;;5032663;28;20292;-74
2023/04/21 10:47:58;;;;;;;18.10;9.47;;;17.70;96.20;;;;;;5032049;28;20779;-74
2023/04/21 10:50:29;;;;;;;16.57;10.90;;;17.70;94.00;;;;;;5032079;28;20713;-75
2023/04/21 10:52:58;;;;;;;15.30;10.00;;;17.70;95.00;;;;;;5041848;28;20291;-75
2023/04/21 10:55:28;;;;;;;15.53;10.17;;;17.70;95.80;;;;;;5028020;28;20611;-75
2023/04/21 10:57:54;;;;;;;14.43;9.50;;;17.60;94.90;;;;;;5039996;28;20287;-74
2023/04/21 11:00:23;;;;;;;19.70;10.53;;;17.40;95.60;;;;;;5026972;28;20783;-74
2023/04/21 11:02:59;;;;;;;16.50;10.47;;;17.30;96.80;;;;;;5029763;28;20287;-75
2023/04/21 11:05:37;;;;;;;19.00;10.33;;;17.00;96.70;;;;;;5022044;28;20787;-75
2023/04/21 11:08:07;;;;;;;15.77;10.70;;;16.90;98.00;;;;;;5037680;28;20644;-75
2023/04/21 11:10:52;;;;;;;19.30;11.10;;;16.80;98.10;;;;;;5046276;28;20275;-75
2023/04/21 11:13:32;;;;;;;19.67;10.93;;;16.70;96.10;;;;;;5023740;28;20291;-75
2023/04/21 11:16:07;;;;;;;25.93;13.73;;;16.80;98.70;;;;;;5018416;28;20069;-76
2023/04/21 11:18:36;;;;;;;17.85;10.48;;;16.80;96.70;;;;;;5024137;28;20298;-76
2023/04/21 11:21:17;;;;;;;25.30;14.03;;;16.90;98.80;;;;;;5020005;28;20037;-75
2023/04/21 11:23:54;;;;;;;13.57;10.20;;;17.00;96.80;;;;;;5028689;28;20307;-76
2023/04/21 11:26:41;;;;;;;18.43;10.30;;;17.20;98.30;;;;;;5044579;28;20330;-75
2023/04/21 11:29:08;;;;;;;14.77;10.13;;;17.40;97.20;;;;;;5028817;28;20299;-75
2023/04/21 11:31:36;;;;;;;13.47;9.73;;;17.60;96.60;;;;;;5031093;28;20280;-76
2023/04/21 11:34:05;;;;;;;14.77;9.83;;;17.80;96.30;;;;;;5028318;28;20284;-76
2023/04/21 11:36:43;;;;;;;17.33;9.93;;;17.90;96.10;;;;;;5029693;28;20505;-76
2023/04/21 11:39:10;;;;;;;17.83;10.40;;;18.10;94.90;;;;;;5043522;28;20290;-75
2023/04/21 11:41:40;;;;;;;16.23;10.47;;;18.20;94.80;;;;;;5043285;28;20287;-76
2023/04/21 11:44:06;;;;;;;16.93;9.93;;;18.40;93.10;;;;;;5020956;28;20307;-75
2023/04/21 11:46:32;;;;;;;13.63;9.40;;;18.70;92.20;;;;;;5028496;28;20294;-76
2023/04/21 11:49:10;;;;;;;16.37;9.57;;;19.00;91.70;;;;;;5042756;28;20042;-76
2023/04/21 11:51:37;;;;;;;22.97;10.53;;;19.40;92.80;;;;;;5025851;28;20033;-75
2023/04/21 11:54:04;;;;;;;12.13;9.70;;;19.70;89.40;;;;;;5022931;28;20037;-76
2023/04/21 11:57:01;;;;;;;16.93;10.57;;;19.70;74.50;;;;;;5049329;28;20037;-76
2023/04/21 11:59:28;;;;;;;14.30;9.50;;;19.80;72.90;;;;;;5042105;28;20052;-75
2023/04/21 12:01:54;;;;;;;15.10;9.77;;;19.80;71.70;;;;;;5034312;28;20068;-77
2023/04/21 12:04:24;;;;;;;14.70;9.23;;;19.90;70.90;;;;;;5047224;28;20033;-76
2023/04/21 12:07:01;;;;;;;14.87;8.97;;;20.00;67.80;;;;;;5049399;28;20098;-76
2023/04/21 12:09:28;;;;;;;15.10;10.10;;;19.90;64.80;;;;;;5051064;28;20071;-76
2023/04/21 12:12:02;;;;;;;16.03;10.10;;;19.70;66.90;;;;;;5050058;28;20041;-76
2023/04/21 12:14:28;;;;;;;12.07;9.07;;;19.70;67.30;;;;;;5050120;28;20492;-76
2023/04/21 12:16:56;;;;;;;12.93;7.93;;;19.60;66.50;;;;;;5027673;28;20072;-76
2023/04/21 12:19:36;;;;;;;16.00;8.60;;;19.60;67.00;;;;;;5047648;28;20068;-76
2023/04/21 12:22:06;;;;;;;12.53;8.40;;;19.60;64.30;;;;;;5034158;28;20481;-75
2023/04/21 12:24:32;;;;;;;12.20;7.90;;;19.60;63.30;;;;;;5054018;28;20045;-76
2023/04/21 12:26:57;;;;;;;14.50;8.30;;;19.60;64.00;;;;;;5033203;28;20043;-75
2023/04/21 12:29:23;;;;;;;13.43;8.47;;;19.60;62.50;;;;;;5030378;28;20052;-75
2023/04/21 12:31:49;;;;;;;18.33;8.77;;;19.70;62.10;;;;;;5027103;28;20048;-75
2023/04/21 12:34:15;;;;;;;13.17;8.03;;;19.50;63.30;;;;;;5035480;28;20112;-75